Schneifelwetter: Wetterstation Hallschlag, 537 m . NN
Wetterdaten: Montag, 19.11.2012
Datum Zeit Temp. A. Feuchte A. Luftdruck Regen Wind Richtung Richtung Sonnenschein T Regen Taupunkt Windchill
19.11.2012 00:09 4,4 C 99 % 1014 hPa 0,0 l/m 12,8 km/h (3 Bft) NO22.5 35 0 min 0 min 4,3 C -0,4 C
19.11.2012 00:24 4,4 C 99 % 1015 hPa 0,0 l/m 7,4 km/h (2 Bft) NO22.5 40 0 min 0 min 4,3 C 3,5 C
19.11.2012 00:39 4,4 C 99 % 1015 hPa 0,0 l/m 9,6 km/h (2 Bft) N-NO 20 0 min 0 min 4,3 C 1,7 C
19.11.2012 00:54 4,4 C 99 % 1015 hPa 0,0 l/m 7,6 km/h (2 Bft) N-NO 20 0 min 0 min 4,3 C 3,3 C
19.11.2012 01:09 4,4 C 99 % 1015 hPa 0,0 l/m 7,6 km/h (2 Bft) N-NO 25 0 min 0 min 4,3 C 3,3 C
19.11.2012 01:24 4,5 C 99 % 1014 hPa 0,0 l/m 3,9 km/h (1 Bft) N-NO22.5 30 0 min 0 min 4,4 C 4,5 C
19.11.2012 01:39 4,5 C 99 % 1014 hPa 0,0 l/m 8,7 km/h (2 Bft) O-NO22.5 75 0 min 0 min 4,4 C 2,5 C
19.11.2012 01:54 4,4 C 99 % 1014 hPa 0,0 l/m 10,0 km/h (2 Bft) NO22.5 55 0 min 0 min 4,3 C 1,4 C
19.11.2012 02:09 4,4 C 99 % 1014 hPa 0,0 l/m 5,9 km/h (2 Bft) NO45 50 0 min 0 min 4,3 C 4,4 C
19.11.2012 02:24 4,4 C 99 % 1014 hPa 0,0 l/m 5,6 km/h (1 Bft) NO 50 0 min 0 min 4,3 C 4,4 C
19.11.2012 02:39 4,4 C 99 % 1014 hPa 0,0 l/m 3,4 km/h (1 Bft) O22.5 80 0 min 0 min 4,3 C 4,4 C
19.11.2012 02:54 4,4 C 99 % 1014 hPa 0,0 l/m 0,0 km/h (0 Bft) O 80 0 min 0 min 4,3 C 4,4 C
19.11.2012 03:09 4,4 C 99 % 1014 hPa 0,0 l/m 8,9 km/h (2 Bft) O-NO22.5 75 0 min 0 min 4,3 C 2,2 C
19.11.2012 03:24 4,4 C 99 % 1014 hPa 0,0 l/m 8,0 km/h (2 Bft) O-NO22.5 60 0 min 0 min 4,3 C 3,0 C
19.11.2012 03:39 4,4 C 99 % 1014 hPa 0,0 l/m 0,0 km/h (0 Bft) O-NO 60 0 min 0 min 4,3 C 4,4 C
19.11.2012 03:54 4,4 C 99 % 1014 hPa 0,0 l/m 4,2 km/h (1 Bft) SO 145 0 min 0 min 4,3 C 4,4 C
19.11.2012 04:09 4,5 C 99 % 1014 hPa 0,0 l/m 10,1 km/h (2 Bft) SO22.5 145 0 min 0 min 4,4 C 1,4 C
19.11.2012 04:24 4,5 C 99 % 1014 hPa 0,0 l/m 2,0 km/h (1 Bft) O-SO22.5 120 0 min 0 min 4,4 C 4,5 C
19.11.2012 04:39 4,5 C 99 % 1014 hPa 0,0 l/m 0,0 km/h (0 Bft) N-NW 335 0 min 0 min 4,4 C 4,5 C
19.11.2012 04:54 4,5 C 99 % 1014 hPa 0,0 l/m 0,0 km/h (0 Bft) S 185 0 min 0 min 4,4 C 4,5 C
19.11.2012 05:09 4,6 C 99 % 1014 hPa 0,0 l/m 0,0 km/h (0 Bft) SW 225 0 min 0 min 4,5 C 4,6 C
19.11.2012 05:24 4,6 C 99 % 1014 hPa 0,0 l/m 0,0 km/h (0 Bft) SO 135 0 min 0 min 4,5 C 4,6 C
19.11.2012 05:39 4,7 C 99 % 1014 hPa 0,0 l/m 0,0 km/h (0 Bft) SO 140 0 min 0 min 4,6 C 4,7 C
19.11.2012 05:54 4,7 C 99 % 1014 hPa 0,0 l/m 0,0 km/h (0 Bft) SO22.5 145 0 min 0 min 4,6 C 4,7 C
19.11.2012 06:09 4,7 C 99 % 1014 hPa 0,0 l/m 0,0 km/h (0 Bft) S-SO 155 0 min 0 min 4,6 C 4,7 C
19.11.2012 06:24 4,8 C 99 % 1014 hPa 0,0 l/m 0,0 km/h (0 Bft) S-SO22.5 155 0 min 0 min 4,7 C 4,8 C
19.11.2012 06:39 4,8 C 99 % 1014 hPa 0,0 l/m 0,0 km/h (0 Bft) SO 135 0 min 0 min 4,7 C 4,8 C
19.11.2012 06:54 4,9 C 99 % 1014 hPa 0,0 l/m 6,5 km/h (2 Bft) SO22.5 145 0 min 0 min 4,8 C 4,8 C
19.11.2012 07:09 4,9 C 99 % 1014 hPa 0,0 l/m 6,7 km/h (2 Bft) S-SO22.5 155 0 min 0 min 4,8 C 4,7 C
19.11.2012 07:24 5,2 C 99 % 1014 hPa 0,0 l/m 4,0 km/h (1 Bft) SO22.5 140 0 min 0 min 5,1 C 5,2 C
19.11.2012 07:39 5,2 C 99 % 1014 hPa 0,0 l/m 3,8 km/h (1 Bft) S-SO 160 0 min 0 min 5,1 C 5,2 C
19.11.2012 08:00 5,2 C 99 % 1014 hPa 0,0 l/m 0,8 km/h (0 Bft) SO 145 0 min 0 min 5,1 C 5,2 C
19.11.2012 08:15 5,2 C 99 % 1014 hPa 0,0 l/m 5,8 km/h (2 Bft) S-SO 155 0 min 0 min 5,1 C 5,2 C
19.11.2012 08:30 5,3 C 99 % 1014 hPa 0,0 l/m 5,8 km/h (2 Bft) S-SO 155 0 min 0 min 5,2 C 5,3 C
19.11.2012 08:45 5,3 C 99 % 1014 hPa 0,0 l/m 0,0 km/h (0 Bft) S-SO 155 0 min 0 min 5,2 C 5,3 C
19.11.2012 09:00 5,5 C 99 % 1014 hPa 0,0 l/m 7,2 km/h (2 Bft) S-SO 155 0 min 0 min 5,4 C 4,8 C
19.11.2012 09:16 5,7 C 99 % 1014 hPa 0,0 l/m 8,7 km/h (2 Bft) S-SO22.5 150 0 min 0 min 5,6 C 3,8 C
19.11.2012 09:30 5,9 C 99 % 1014 hPa 0,0 l/m 0,0 km/h (0 Bft) S-SO 160 0 min 0 min 5,8 C 5,9 C
19.11.2012 09:45 6,2 C 99 % 1014 hPa 0,0 l/m 0,0 km/h (0 Bft) SO 145 0 min 0 min 6,1 C 6,2 C
19.11.2012 10:00 6,3 C 99 % 1014 hPa 0,0 l/m 0,0 km/h (0 Bft) SO 145 0 min 0 min 6,2 C 6,3 C
19.11.2012 10:15 6,4 C 99 % 1014 hPa 0,0 l/m 0,0 km/h (0 Bft) SO 145 0 min 0 min 6,3 C 6,4 C
19.11.2012 10:30 6,4 C 99 % 1014 hPa 0,0 l/m 0,1 km/h (0 Bft) S22.5 185 0 min 0 min 6,3 C 6,4 C
19.11.2012 10:46 6,7 C 99 % 1014 hPa 0,0 l/m 6,9 km/h (2 Bft) S45 175 0 min 0 min 6,6 C 6,3 C
19.11.2012 11:00 6,9 C 99 % 1014 hPa 0,0 l/m 6,9 km/h (2 Bft) S45 175 0 min 0 min 6,8 C 6,5 C
19.11.2012 11:15 7,1 C 99 % 1014 hPa 0,0 l/m 6,9 km/h (2 Bft) S45 175 0 min 0 min 7,0 C 6,7 C
19.11.2012 11:30 7,6 C 99 % 1014 hPa 0,0 l/m 13,2 km/h (3 Bft) S45 175 0 min 0 min 7,5 C 3,1 C
19.11.2012 11:45 7,9 C 99 % 1014 hPa 0,0 l/m 4,0 km/h (1 Bft) S45 180 0 min 0 min 7,8 C 7,9 C
19.11.2012 12:01 8,2 C 99 % 1014 hPa 0,0 l/m 9,4 km/h (2 Bft) S67.5 180 0 min 0 min 8,1 C 6,0 C
19.11.2012 12:15 8,4 C 99 % 1014 hPa 0,0 l/m 8,1 km/h (2 Bft) S45 170 0 min 0 min 8,3 C 7,1 C
19.11.2012 12:30 8,7 C 99 % 1014 hPa 0,0 l/m 8,1 km/h (2 Bft) S45 170 0 min 0 min 8,6 C 7,4 C
19.11.2012 12:45 8,8 C 98 % 1014 hPa 0,0 l/m 8,1 km/h (2 Bft) S45 170 0 min 0 min 8,5 C 7,5 C
19.11.2012 13:00 8,8 C 97 % 1014 hPa 0,0 l/m 17,7 km/h (3 Bft) S-SO22.5 160 0 min 0 min 8,4 C 2,6 C
19.11.2012 13:16 8,8 C 96 % 1013 hPa 0,0 l/m 17,7 km/h (3 Bft) S-SO22.5 160 0 min 0 min 8,2 C 2,6 C
19.11.2012 13:31 8,9 C 96 % 1014 hPa 0,0 l/m 17,7 km/h (3 Bft) S-SO22.5 160 0 min 0 min 8,3 C 2,7 C
19.11.2012 13:45 9,0 C 96 % 1014 hPa 0,0 l/m 8,8 km/h (2 Bft) S45 180 0 min 0 min 8,4 C 7,3 C
19.11.2012 14:00 9,2 C 95 % 1014 hPa 0,0 l/m 10,5 km/h (2 Bft) S22.5 180 0 min 0 min 8,4 C 6,4 C
19.11.2012 14:15 9,2 C 95 % 1014 hPa 0,0 l/m 10,5 km/h (2 Bft) S22.5 180 0 min 0 min 8,4 C 6,4 C
19.11.2012 14:30 8,8 C 95 % 1014 hPa 0,0 l/m 10,5 km/h (2 Bft) S22.5 180 0 min 0 min 8,0 C 6,0 C
19.11.2012 14:46 8,7 C 95 % 1014 hPa 0,0 l/m 9,0 km/h (2 Bft) S-SO22.5 165 0 min 0 min 7,9 C 6,8 C
19.11.2012 15:01 8,4 C 94 % 1014 hPa 0,0 l/m 10,6 km/h (2 Bft) SW22.5 225 0 min 0 min 7,5 C 5,5 C
19.11.2012 15:15 8,1 C 95 % 1014 hPa 0,0 l/m 11,1 km/h (2 Bft) S22.5 170 0 min 0 min 7,3 C 4,8 C
19.11.2012 15:30 7,9 C 95 % 1014 hPa 0,0 l/m 6,7 km/h (2 Bft) S-SO22.5 160 0 min 0 min 7,1 C 7,7 C
19.11.2012 15:45 7,9 C 96 % 1014 hPa 0,0 l/m 6,6 km/h (2 Bft) S-SW45 205 0 min 0 min 7,3 C 7,8 C
19.11.2012 16:00 7,7 C 96 % 1014 hPa 0,0 l/m 8,4 km/h (2 Bft) S-SW22.5 210 0 min 0 min 7,1 C 6,1 C
19.11.2012 16:16 7,7 C 96 % 1014 hPa 0,0 l/m 8,4 km/h (2 Bft) S-SW22.5 210 0 min 0 min 7,1 C 6,1 C
19.11.2012 16:31 7,5 C 96 % 1014 hPa 0,0 l/m 8,8 km/h (2 Bft) SW22.5 215 0 min 0 min 6,9 C 5,6 C
19.11.2012 16:45 7,3 C 96 % 1014 hPa 0,0 l/m 0,0 km/h (0 Bft) W-SW 240 0 min 0 min 6,7 C 7,3 C
19.11.2012 17:00 6,8 C 96 % 1014 hPa 0,0 l/m 6,7 km/h (2 Bft) S45 180 0 min 0 min 6,2 C 6,6 C
19.11.2012 17:15 6,4 C 96 % 1015 hPa 0,0 l/m 0,0 km/h (0 Bft) S-SW 195 0 min 0 min 5,8 C 6,4 C
19.11.2012 17:30 6,2 C 96 % 1014 hPa 0,0 l/m 0,0 km/h (0 Bft) S22.5 190 0 min 0 min 5,6 C 6,2 C
19.11.2012 17:46 5,7 C 96 % 1015 hPa 0,0 l/m 0,0 km/h (0 Bft) S 190 0 min 0 min 5,1 C 5,7 C
19.11.2012 18:01 4,8 C 95 % 1015 hPa 0,0 l/m 0,0 km/h (0 Bft) S 190 0 min 0 min 4,1 C 4,8 C
19.11.2012 18:15 4,3 C 96 % 1015 hPa 0,0 l/m 0,0 km/h (0 Bft) S 185 0 min 0 min 3,7 C 4,3 C
19.11.2012 18:30 4,0 C 96 % 1015 hPa 0,0 l/m 0,0 km/h (0 Bft) W 260 0 min 0 min 3,4 C 4,0 C
19.11.2012 18:45 4,0 C 97 % 1015 hPa 0,0 l/m 0,0 km/h (0 Bft) W 260 0 min 0 min 3,6 C 4,0 C
19.11.2012 19:00 4,1 C 97 % 1015 hPa 0,0 l/m 0,0 km/h (0 Bft) W 260 0 min 0 min 3,7 C 4,1 C
19.11.2012 19:16 4,3 C 97 % 1015 hPa 0,0 l/m 0,0 km/h (0 Bft) W 260 0 min 0 min 3,9 C 4,3 C
19.11.2012 19:31 4,4 C 97 % 1015 hPa 0,0 l/m 0,0 km/h (0 Bft) W 260 0 min 0 min 4,0 C 4,4 C
19.11.2012 19:45 4,4 C 98 % 1015 hPa 0,0 l/m 0,0 km/h (0 Bft) W 260 0 min 0 min 4,1 C 4,4 C
19.11.2012 20:00 4,4 C 98 % 1015 hPa 0,0 l/m 0,0 km/h (0 Bft) W 260 0 min 0 min 4,1 C 4,4 C
19.11.2012 20:15 4,4 C 98 % 1015 hPa 0,0 l/m 0,0 km/h (0 Bft) W 260 0 min 0 min 4,1 C 4,4 C
19.11.2012 20:30 4,3 C 98 % 1015 hPa 0,0 l/m 3,4 km/h (1 Bft) W-SW 245 0 min 0 min 4,0 C 4,3 C
19.11.2012 20:46 4,2 C 98 % 1015 hPa 0,0 l/m 0,0 km/h (0 Bft) W-SW 250 0 min 0 min 3,9 C 4,2 C
19.11.2012 21:01 4,1 C 98 % 1015 hPa 0,0 l/m 0,0 km/h (0 Bft) W-SW 250 0 min 0 min 3,8 C 4,1 C
19.11.2012 21:15 4,2 C 98 % 1015 hPa 0,0 l/m 0,0 km/h (0 Bft) W-SW 250 0 min 0 min 3,9 C 4,2 C
19.11.2012 21:30 4,3 C 98 % 1015 hPa 0,0 l/m 0,0 km/h (0 Bft) W-SW 250 0 min 0 min 4,0 C 4,3 C
19.11.2012 21:45 4,4 C 98 % 1015 hPa 0,0 l/m 0,0 km/h (0 Bft) W-SW 250 0 min 0 min 4,1 C 4,4 C
19.11.2012 22:00 4,4 C 98 % 1015 hPa 0,0 l/m 0,0 km/h (0 Bft) W-SW 250 0 min 0 min 4,1 C 4,4 C
19.11.2012 22:16 4,5 C 98 % 1015 hPa 0,0 l/m 0,0 km/h (0 Bft) W-SW 250 0 min 0 min 4,2 C 4,5 C
19.11.2012 22:31 4,5 C 98 % 1015 hPa 0,0 l/m 0,0 km/h (0 Bft) W-SW 250 0 min 0 min 4,2 C 4,5 C
19.11.2012 22:45 4,4 C 98 % 1015 hPa 0,0 l/m 0,0 km/h (0 Bft) W-SW 250 0 min 0 min 4,1 C 4,4 C
19.11.2012 23:00 4,4 C 98 % 1015 hPa 0,0 l/m 0,0 km/h (0 Bft) W-SW 250 0 min 0 min 4,1 C 4,4 C
19.11.2012 23:15 4,4 C 99 % 1015 hPa 0,0 l/m 0,0 km/h (0 Bft) W-SW 250 0 min 0 min 4,3 C 4,4 C
19.11.2012 23:30 4,5 C 99 % 1015 hPa 0,0 l/m 0,0 km/h (0 Bft) W-SW 250 0 min 0 min 4,4 C 4,5 C
19.11.2012 23:46 4,5 C 99 % 1015 hPa 0,0 l/m 0,0 km/h (0 Bft) W-SW 250 0 min 0 min 4,4 C 4,5 C
_ Min-Zeit 18:30 15:01 13:16 - 02:54 - - - - 18:30 00:09
Minimum _ 4,0 C 94 % 1013 hPa - 0,0 km/h (0 Bft) - - - - 3,4 C -0,4 C
_ Max-Zeit 14:00 00:09 00:24 00:09 13:00 - - 00:09 00:09 12:30 11:45
Maximum _ 9,2 C 99 % 1015 hPa 0,0 l/m 17,7 km/h
S-SO (3 Bft)
- - 0 min 0 min 8,6 C 7,9 C
Durchschnitt _ 5,7 C 98 % 1014 hPa #0,0 l/m 4,3 km/h (1 Bft) S - #0 min. #0 min. 5,4 C 4,9 C